createdAt,value
2023-02-12T00:00:16.898Z,8.57
2023-02-12T00:02:19.044Z,7.03
2023-02-12T00:04:20.712Z,7.88
2023-02-12T00:06:22.919Z,7.75
2023-02-12T00:08:24.620Z,7.95
2023-02-12T00:10:26.314Z,8.02
2023-02-12T00:12:27.931Z,8.00
2023-02-12T00:14:29.543Z,7.13
2023-02-12T00:16:31.274Z,7.45
2023-02-12T00:18:32.931Z,8.30
2023-02-12T00:20:34.899Z,7.68
2023-02-12T00:22:36.582Z,7.03
2023-02-12T00:24:38.240Z,7.82
2023-02-12T00:26:39.966Z,7.30
2023-02-12T00:28:41.940Z,7.28
2023-02-12T00:30:43.793Z,7.40
2023-02-12T00:32:46.422Z,7.45
2023-02-12T00:34:48.077Z,7.65
2023-02-12T00:36:49.664Z,8.05
2023-02-12T00:38:53.067Z,8.13
2023-02-12T00:40:54.886Z,8.23
2023-02-12T00:42:56.479Z,8.13
2023-02-12T00:44:58.109Z,8.02
2023-02-12T00:47:02.476Z,7.85
2023-02-12T00:49:04.165Z,7.90
2023-02-12T00:51:06.040Z,6.80
2023-02-12T00:53:08.394Z,7.30
2023-02-12T00:55:10.032Z,7.15
2023-02-12T00:57:11.696Z,7.90
2023-02-12T00:59:13.279Z,6.72
2023-02-12T01:01:15.054Z,7.35
2023-02-12T01:03:17.108Z,7.47
2023-02-12T01:05:19.717Z,7.65
2023-02-12T01:07:21.565Z,7.38
2023-02-12T01:09:23.222Z,7.28
2023-02-12T01:11:24.810Z,7.78
2023-02-12T01:13:27.398Z,7.82
2023-02-12T01:15:29.066Z,8.10
2023-02-12T01:17:30.684Z,7.20
2023-02-12T01:19:32.379Z,7.43
2023-02-12T01:21:35.302Z,8.27
2023-02-12T01:23:36.990Z,7.60
2023-02-12T01:25:38.991Z,7.40
2023-02-12T01:27:40.995Z,7.95
2023-02-12T01:29:44.777Z,8.30
2023-02-12T01:31:46.641Z,8.23
2023-02-12T01:33:49.779Z,8.23
2023-02-12T01:35:51.456Z,7.93
2023-02-12T01:37:53.230Z,9.07
2023-02-12T01:39:54.965Z,8.35
2023-02-12T01:41:56.699Z,8.43
2023-02-12T01:44:06.155Z,9.18
2023-02-12T01:46:10.782Z,9.38
2023-02-12T01:48:14.641Z,8.75
2023-02-12T01:50:18.943Z,8.57
2023-02-12T01:52:27.784Z,9.40
2023-02-12T01:54:29.886Z,9.07
2023-02-12T01:56:32.213Z,8.98
2023-02-12T01:58:39.738Z,9.38
2023-02-12T02:00:41.477Z,9.25
2023-02-12T02:02:45.511Z,9.93
2023-02-12T02:04:52.404Z,9.60
2023-02-12T02:06:57.682Z,8.57
2023-02-12T02:08:59.321Z,9.23
2023-02-12T02:11:00.954Z,10.40
2023-02-12T02:13:21.580Z,9.43
2023-02-12T02:15:23.639Z,9.07
2023-02-12T02:17:55.728Z,9.18
2023-02-12T02:20:22.784Z,9.88
2023-02-12T02:23:01.881Z,8.18
2023-02-12T02:25:15.882Z,9.85
2023-02-12T02:27:28.661Z,8.60
2023-02-12T02:30:14.909Z,9.82
2023-02-12T02:32:23.314Z,9.27
2023-02-12T02:34:35.080Z,9.75
2023-02-12T02:37:00.874Z,9.45
2023-02-12T02:39:11.056Z,8.70
2023-02-12T02:41:20.568Z,9.38
2023-02-12T02:43:49.699Z,9.73
2023-02-12T02:45:53.526Z,9.38
2023-02-12T02:48:14.135Z,8.98
2023-02-12T02:50:18.800Z,10.02
2023-02-12T02:52:25.753Z,9.73
2023-02-12T02:54:40.518Z,9.20
2023-02-12T02:56:45.425Z,8.80
2023-02-12T02:58:52.495Z,10.00
2023-02-12T03:01:14.288Z,9.98
2023-02-12T03:03:39.766Z,9.02
2023-02-12T03:05:47.630Z,9.45
2023-02-12T03:07:54.225Z,10.07
2023-02-12T03:10:32.079Z,9.48
2023-02-12T03:12:41.757Z,10.43
2023-02-12T03:14:54.488Z,10.25
2023-02-12T03:17:04.617Z,10.60
2023-02-12T03:19:13.989Z,10.57
2023-02-12T03:21:19.606Z,10.57
2023-02-12T03:23:26.144Z,10.00
2023-02-12T03:25:36.869Z,10.05
2023-02-12T03:27:47.630Z,11.38
2023-02-12T03:29:49.302Z,11.75
2023-02-12T03:32:39.128Z,12.07
2023-02-12T03:35:10.341Z,11.73
2023-02-12T03:37:19.388Z,12.05
2023-02-12T03:39:41.972Z,11.55
2023-02-12T03:42:04.566Z,12.63
2023-02-12T03:44:18.909Z,11.40
2023-02-12T03:48:42.209Z,12.98
2023-02-12T03:50:58.973Z,12.45
2023-02-12T03:53:00.556Z,11.77
2023-02-12T03:55:03.141Z,12.50
2023-02-12T03:57:10.890Z,12.88
2023-02-12T03:59:12.716Z,12.82
2023-02-12T04:01:14.828Z,13.07
2023-02-12T04:03:16.510Z,13.23
2023-02-12T04:05:20.040Z,14.82
2023-02-12T04:07:21.885Z,14.23
2023-02-12T04:09:25.397Z,13.65
2023-02-12T04:11:58.055Z,14.77
2023-02-12T04:14:32.851Z,13.35
2023-02-12T04:16:46.272Z,14.48
2023-02-12T04:18:51.775Z,13.57
2023-02-12T04:21:21.112Z,13.75
2023-02-12T04:23:40.957Z,14.13
2023-02-12T04:25:54.027Z,13.73
2023-02-12T04:27:57.494Z,12.70
2023-02-12T04:30:21.817Z,13.70
2023-02-12T04:32:38.795Z,13.25
2023-02-12T04:34:46.183Z,13.40
2023-02-12T04:36:59.572Z,13.77
2023-02-12T04:39:08.690Z,12.73
2023-02-12T04:41:10.751Z,14.60
2023-02-12T04:43:12.675Z,14.05
2023-02-12T04:45:17.184Z,14.90
2023-02-12T04:47:18.816Z,16.42
2023-02-12T04:49:21.718Z,17.98
2023-02-12T04:51:23.747Z,20.45
2023-02-12T04:53:25.416Z,20.98
2023-02-12T04:55:27.120Z,21.33
2023-02-12T04:57:28.779Z,21.55
2023-02-12T04:59:30.467Z,19.20
2023-02-12T05:01:35.334Z,20.92
2023-02-12T05:03:37.698Z,17.98
2023-02-12T05:05:39.268Z,17.40
2023-02-12T05:07:40.967Z,14.88
2023-02-12T05:09:42.661Z,14.15
2023-02-12T05:11:44.759Z,12.80
2023-02-12T05:13:53.389Z,13.98
2023-02-12T05:15:55.478Z,12.05
2023-02-12T05:17:57.321Z,12.82
2023-02-12T05:19:58.965Z,11.20
2023-02-12T05:22:00.640Z,11.15
2023-02-12T05:24:03.308Z,12.25
2023-02-12T05:26:07.379Z,10.80
2023-02-12T05:28:09.027Z,12.40
2023-02-12T05:30:11.078Z,11.15
2023-02-12T05:32:12.875Z,10.52
2023-02-12T05:34:14.595Z,10.10
2023-02-12T05:36:18.645Z,10.85
2023-02-12T05:38:20.280Z,10.60
2023-02-12T05:40:22.014Z,11.48
2023-02-12T05:42:23.632Z,11.75
2023-02-12T05:44:25.200Z,11.18
2023-02-12T05:46:27.055Z,11.00
2023-02-12T05:48:29.520Z,12.38
2023-02-12T05:50:31.078Z,12.27
2023-02-12T05:52:33.868Z,13.15
2023-02-12T05:54:35.560Z,12.68
2023-02-12T05:56:42.106Z,12.43
2023-02-12T05:58:52.833Z,13.82
2023-02-12T06:00:54.464Z,13.23
2023-02-12T06:02:56.304Z,13.18
2023-02-12T06:04:57.900Z,11.32
2023-02-12T06:07:00.752Z,12.30
2023-02-12T06:09:02.800Z,10.95
2023-02-12T06:11:06.623Z,10.43
2023-02-12T06:13:08.311Z,10.07
2023-02-12T06:15:09.963Z,10.60
2023-02-12T06:17:11.733Z,11.07
2023-02-12T06:19:13.543Z,11.30
2023-02-12T06:21:16.070Z,10.32
2023-02-12T06:23:17.697Z,11.75
2023-02-12T06:25:19.314Z,10.65
2023-02-12T06:27:21.005Z,10.25
2023-02-12T06:29:23.012Z,10.48
2023-02-12T06:31:27.659Z,11.30
2023-02-12T06:33:29.392Z,11.30
2023-02-12T06:35:30.965Z,11.48
2023-02-12T06:37:32.923Z,11.23
2023-02-12T06:39:34.532Z,10.55
2023-02-12T06:41:36.124Z,11.00
2023-02-12T06:43:37.927Z,11.40
2023-02-12T06:45:39.663Z,10.70
2023-02-12T06:47:41.284Z,9.82
2023-02-12T06:49:42.950Z,10.80
2023-02-12T06:51:44.597Z,10.52
2023-02-12T06:53:46.171Z,10.57
2023-02-12T06:55:47.804Z,9.50
2023-02-12T06:57:49.501Z,9.85
2023-02-12T06:59:51.119Z,10.52
2023-02-12T07:01:52.752Z,10.77
2023-02-12T07:03:57.654Z,11.77
2023-02-12T07:05:59.300Z,12.98
2023-02-12T07:08:00.909Z,10.38
2023-02-12T07:10:02.564Z,10.90
2023-02-12T07:12:04.777Z,11.13
2023-02-12T07:14:07.513Z,10.82
2023-02-12T07:16:14.480Z,11.57
2023-02-12T07:18:16.092Z,12.10
2023-02-12T07:20:17.952Z,11.30
2023-02-12T07:22:20.784Z,11.93
2023-02-12T07:24:22.440Z,10.43
2023-02-12T07:26:24.284Z,12.40
2023-02-12T07:28:26.987Z,11.18
2023-02-12T07:30:28.676Z,10.98
2023-02-12T07:32:32.808Z,11.55
2023-02-12T07:34:34.439Z,10.63
2023-02-12T07:36:36.332Z,12.43
2023-02-12T07:38:41.297Z,12.23
2023-02-12T07:40:43.741Z,12.95
2023-02-12T07:42:45.343Z,12.80
2023-02-12T07:44:46.967Z,15.38
2023-02-12T07:46:49.499Z,15.00
2023-02-12T07:48:51.564Z,15.00
2023-02-12T07:50:53.109Z,14.23
2023-02-12T07:52:54.778Z,17.70
2023-02-12T07:54:56.446Z,15.85
2023-02-12T07:56:58.436Z,15.93
2023-02-12T07:59:02.191Z,16.65
2023-02-12T08:01:23.754Z,16.73
2023-02-12T08:03:25.420Z,18.23
2023-02-12T08:05:28.223Z,20.13
2023-02-12T08:07:29.837Z,20.42
2023-02-12T08:09:31.485Z,18.92
2023-02-12T08:11:36.875Z,18.77
2023-02-12T08:13:39.031Z,20.85
2023-02-12T08:15:40.600Z,22.00
2023-02-12T08:17:43.658Z,22.35
2023-02-12T08:19:45.316Z,19.93
2023-02-12T08:21:50.471Z,15.32
2023-02-12T08:23:54.181Z,15.60
2023-02-12T08:25:56.152Z,15.50
2023-02-12T08:27:57.954Z,15.32
2023-02-12T08:29:59.601Z,15.73
2023-02-12T08:32:02.785Z,17.00
2023-02-12T08:34:05.031Z,16.00
2023-02-12T08:36:12.214Z,15.25
2023-02-12T08:38:13.844Z,14.57
2023-02-12T08:40:15.476Z,13.85
2023-02-12T08:42:17.081Z,14.88
2023-02-12T08:44:18.960Z,12.88
2023-02-12T08:46:22.805Z,15.27
2023-02-12T08:50:25.931Z,14.18
2023-02-12T08:52:27.547Z,14.57
2023-02-12T08:54:30.679Z,13.23
2023-02-12T08:56:33.543Z,15.43
2023-02-12T08:58:35.672Z,13.82
2023-02-12T09:00:39.553Z,14.27
2023-02-12T09:02:42.140Z,14.98
2023-02-12T09:04:43.849Z,15.43
2023-02-12T09:06:46.486Z,15.23
2023-02-12T09:08:48.720Z,15.10
2023-02-12T09:10:50.402Z,15.05
2023-02-12T09:12:52.014Z,15.10
2023-02-12T09:14:53.632Z,16.45
2023-02-12T09:16:57.374Z,15.75
2023-02-12T09:18:59.201Z,15.68
2023-02-12T09:21:03.365Z,15.30
2023-02-12T09:23:05.883Z,14.93
2023-02-12T09:25:07.678Z,15.65
2023-02-12T09:27:09.300Z,15.15
2023-02-12T09:29:10.990Z,22.20
2023-02-12T09:31:17.858Z,17.90
2023-02-12T09:33:19.582Z,15.77
2023-02-12T09:35:21.366Z,16.77
2023-02-12T09:37:22.987Z,16.02
2023-02-12T09:39:24.627Z,16.27
2023-02-12T09:42:07.272Z,15.60
2023-02-12T09:44:16.042Z,14.93
2023-02-12T09:46:32.622Z,15.40
2023-02-12T09:49:02.056Z,14.65
2023-02-12T09:51:07.748Z,16.33
2023-02-12T09:53:13.465Z,16.30
2023-02-12T09:55:16.639Z,14.80
2023-02-12T09:57:23.981Z,16.77
2023-02-12T09:59:35.983Z,16.23
2023-02-12T10:01:37.700Z,15.30
2023-02-12T10:03:39.618Z,17.67
2023-02-12T10:05:49.709Z,18.15
2023-02-12T10:08:24.859Z,17.17
2023-02-12T10:10:26.556Z,17.10
2023-02-12T10:12:47.688Z,17.50
2023-02-12T10:15:01.284Z,17.65
2023-02-12T10:17:24.085Z,19.33
2023-02-12T10:19:49.198Z,18.15
2023-02-12T10:22:03.453Z,18.20
2023-02-12T10:26:28.827Z,18.10
2023-02-12T10:28:35.939Z,20.33
2023-02-12T10:30:53.254Z,21.30
2023-02-12T10:32:59.485Z,20.60
2023-02-12T10:35:02.406Z,19.08
2023-02-12T10:37:12.320Z,18.85
2023-02-12T10:39:25.230Z,19.50
2023-02-12T10:41:28.633Z,18.83
2023-02-12T10:43:30.641Z,19.73
2023-02-12T10:45:39.848Z,19.67
2023-02-12T10:47:41.597Z,20.98
2023-02-12T10:49:43.238Z,20.15
2023-02-12T10:51:59.508Z,20.33
2023-02-12T10:54:35.927Z,18.13
2023-02-12T10:56:37.563Z,20.00
2023-02-12T10:58:53.911Z,20.00
2023-02-12T11:01:00.410Z,18.48
2023-02-12T11:03:14.137Z,19.73
2023-02-12T11:05:26.365Z,20.88
2023-02-12T11:07:28.638Z,18.05
2023-02-12T11:09:45.493Z,19.70
2023-02-12T11:11:49.516Z,19.33
2023-02-12T11:14:05.656Z,17.52
2023-02-12T11:16:08.220Z,18.83
2023-02-12T11:18:26.173Z,21.23
2023-02-12T11:20:52.042Z,20.85
2023-02-12T11:23:06.325Z,19.77
2023-02-12T11:27:25.827Z,20.15
2023-02-12T11:29:27.438Z,22.98
2023-02-12T11:31:31.745Z,23.67
2023-02-12T11:33:35.303Z,19.73
2023-02-12T11:35:37.215Z,21.52
2023-02-12T11:37:46.352Z,20.67
2023-02-12T11:39:49.245Z,21.80
2023-02-12T11:41:56.862Z,22.65
2023-02-12T11:43:58.719Z,21.23
2023-02-12T11:46:00.902Z,20.35
2023-02-12T11:48:02.732Z,17.95
2023-02-12T11:50:07.386Z,20.52
2023-02-12T11:52:21.267Z,19.50
2023-02-12T11:54:25.875Z,20.10
2023-02-12T11:56:42.116Z,20.95
2023-02-12T11:58:44.985Z,21.60
2023-02-12T12:01:03.577Z,20.50
2023-02-12T12:03:27.174Z,23.25
2023-02-12T12:05:35.538Z,20.08
2023-02-12T12:07:39.959Z,19.23
2023-02-12T12:09:46.204Z,19.08
2023-02-12T12:12:00.261Z,20.08
2023-02-12T12:14:07.281Z,19.98
2023-02-12T12:16:31.939Z,18.85
2023-02-12T12:20:57.003Z,19.73
2023-02-12T12:23:19.438Z,20.15
2023-02-12T12:25:25.626Z,20.15
2023-02-12T12:28:00.896Z,18.15
2023-02-12T12:30:07.019Z,17.33
2023-02-12T12:32:10.430Z,18.35
2023-02-12T12:34:20.622Z,17.98
2023-02-12T12:36:55.868Z,19.55
2023-02-12T12:39:24.985Z,18.42
2023-02-12T12:41:49.967Z,20.33
2023-02-12T12:44:03.860Z,18.70
2023-02-12T12:46:18.647Z,19.58
2023-02-12T12:48:26.065Z,17.83
2023-02-12T12:50:43.395Z,19.55
2023-02-12T12:52:50.696Z,20.48
2023-02-12T12:55:26.384Z,20.92
2023-02-12T12:57:44.306Z,21.50
2023-02-12T12:59:53.485Z,21.15
2023-02-12T13:02:00.344Z,19.73
2023-02-12T13:04:26.729Z,21.10
2023-02-12T13:06:40.372Z,20.10
2023-02-12T13:09:00.809Z,24.58
2023-02-12T13:11:28.625Z,20.05
2023-02-12T13:13:33.269Z,19.40
2023-02-12T13:15:55.351Z,20.58
2023-02-12T13:18:09.747Z,21.17
2023-02-12T13:23:00.329Z,20.00
2023-02-12T13:25:19.357Z,22.25
2023-02-12T13:27:24.666Z,21.42
2023-02-12T13:29:51.890Z,21.50
2023-02-12T13:31:57.315Z,19.85
2023-02-12T13:34:02.341Z,23.17
2023-02-12T13:36:05.929Z,20.67
2023-02-12T13:38:09.518Z,21.17
2023-02-12T13:40:22.565Z,20.65
2023-02-12T13:42:50.527Z,22.00
2023-02-12T13:45:18.158Z,21.35
2023-02-12T13:47:45.628Z,21.40
2023-02-12T13:49:52.186Z,23.63
2023-02-12T13:52:00.558Z,21.83
2023-02-12T13:54:11.167Z,21.05
2023-02-12T13:56:29.830Z,20.35
2023-02-12T13:58:31.764Z,22.85
2023-02-12T14:00:51.458Z,22.85
2023-02-12T14:02:53.257Z,23.48
2023-02-12T14:05:03.524Z,22.33
2023-02-12T14:07:10.034Z,21.45
2023-02-12T14:09:11.708Z,24.65
2023-02-12T14:11:16.700Z,22.13
2023-02-12T14:13:21.736Z,21.95
2023-02-12T14:15:36.681Z,22.67
2023-02-12T14:17:40.480Z,23.10
2023-02-12T14:19:51.258Z,22.30
2023-02-12T14:21:52.958Z,22.17
2023-02-12T14:23:54.566Z,22.75
2023-02-12T14:26:14.073Z,22.75
2023-02-12T14:28:26.749Z,20.52
2023-02-12T14:30:39.176Z,21.58
2023-02-12T14:32:44.977Z,21.73
2023-02-12T14:34:47.083Z,23.17
2023-02-12T14:36:51.495Z,24.15
2023-02-12T14:38:58.607Z,21.90
2023-02-12T14:41:45.173Z,21.65
2023-02-12T14:44:01.655Z,23.17
2023-02-12T14:46:24.874Z,22.95
2023-02-12T14:48:45.301Z,21.27
2023-02-12T14:50:52.023Z,20.27
2023-02-12T14:52:59.355Z,22.38
2023-02-12T14:55:39.096Z,21.58
2023-02-12T14:57:41.457Z,20.90
2023-02-12T14:59:44.293Z,22.30
2023-02-12T15:01:46.098Z,20.88
2023-02-12T15:03:51.442Z,23.10
2023-02-12T15:06:13.208Z,22.70
2023-02-12T15:08:39.394Z,23.85
2023-02-12T15:10:50.679Z,23.42
2023-02-12T15:13:00.255Z,23.50
2023-02-12T15:15:01.795Z,22.30
2023-02-12T15:17:10.150Z,23.88
2023-02-12T15:19:39.499Z,26.08
2023-02-12T15:21:41.694Z,24.10
2023-02-12T15:23:45.430Z,24.58
2023-02-12T15:25:50.736Z,25.83
2023-02-12T15:27:58.936Z,24.10
2023-02-12T15:30:00.675Z,24.08
2023-02-12T15:32:05.080Z,25.13
2023-02-12T15:34:06.816Z,23.83
2023-02-12T15:36:09.939Z,24.77
2023-02-12T15:38:21.364Z,24.08
2023-02-12T15:40:23.521Z,24.67
2023-02-12T15:42:28.698Z,26.83
2023-02-12T15:44:32.576Z,26.23
2023-02-12T15:48:36.963Z,26.83
2023-02-12T15:50:50.623Z,27.58
2023-02-12T15:52:53.051Z,24.73
2023-02-12T15:54:55.070Z,25.50
2023-02-12T15:56:56.796Z,27.65
2023-02-12T15:59:00.781Z,26.80
2023-02-12T16:01:05.813Z,27.90
2023-02-12T16:03:21.155Z,26.02
2023-02-12T16:05:23.131Z,28.75
2023-02-12T16:07:26.335Z,28.13
2023-02-12T16:09:32.283Z,28.77
2023-02-12T16:11:34.589Z,26.70
2023-02-12T16:13:37.091Z,26.20
2023-02-12T16:15:40.354Z,27.23
2023-02-12T16:17:47.345Z,28.25
2023-02-12T16:20:04.479Z,27.65
2023-02-12T16:22:07.604Z,27.38
2023-02-12T16:24:37.969Z,29.23
2023-02-12T16:26:39.674Z,28.27
2023-02-12T16:28:46.948Z,27.75
2023-02-12T16:30:48.693Z,27.05
2023-02-12T16:32:50.745Z,26.92
2023-02-12T16:35:25.284Z,28.27
2023-02-12T16:37:38.962Z,30.48
2023-02-12T16:40:06.108Z,29.08
2023-02-12T16:42:15.226Z,30.52
2023-02-12T16:44:16.860Z,31.42
2023-02-12T16:46:19.136Z,31.75
2023-02-12T16:48:24.837Z,29.80
2023-02-12T16:50:30.324Z,31.52
2023-02-12T16:52:37.741Z,31.02
2023-02-12T16:54:39.476Z,32.92
2023-02-12T16:56:42.031Z,34.33
2023-02-12T16:58:44.878Z,36.10
2023-02-12T17:00:46.703Z,33.97
2023-02-12T17:02:48.550Z,32.90
2023-02-12T17:04:50.191Z,33.05
2023-02-12T17:06:52.024Z,33.95
2023-02-12T17:08:53.646Z,31.83
2023-02-12T17:10:55.247Z,35.35
2023-02-12T17:12:56.858Z,36.08
2023-02-12T17:14:58.466Z,35.63
2023-02-12T17:17:00.096Z,33.90
2023-02-12T17:19:01.815Z,35.45
2023-02-12T17:21:05.779Z,35.20
2023-02-12T17:25:10.204Z,35.10
2023-02-12T17:27:13.834Z,32.73
2023-02-12T17:29:15.420Z,34.60
2023-02-12T17:31:17.246Z,34.45
2023-02-12T17:33:19.330Z,34.40
2023-02-12T17:35:21.002Z,34.10
2023-02-12T17:37:24.652Z,34.67
2023-02-12T17:39:26.251Z,32.78
2023-02-12T17:41:27.917Z,33.65
2023-02-12T17:43:29.536Z,33.03
2023-02-12T17:45:31.493Z,33.88
2023-02-12T17:47:39.708Z,34.13
2023-02-12T17:49:42.061Z,34.05
2023-02-12T17:51:43.711Z,33.15
2023-02-12T17:53:45.674Z,37.15
2023-02-12T17:55:47.263Z,37.13
2023-02-12T17:57:53.260Z,38.70
2023-02-12T17:59:54.863Z,37.92
2023-02-12T18:01:56.621Z,37.55
2023-02-12T18:03:58.899Z,37.80
2023-02-12T18:06:00.618Z,44.58
2023-02-12T18:08:03.617Z,45.47
2023-02-12T18:10:06.822Z,45.63
2023-02-12T18:12:08.788Z,46.33
2023-02-12T18:14:11.512Z,47.13
2023-02-12T18:16:14.026Z,47.88
2023-02-12T18:18:16.798Z,50.03
2023-02-12T18:20:18.462Z,49.63
2023-02-12T18:22:21.240Z,51.92
2023-02-12T18:24:22.854Z,49.85
2023-02-12T18:26:24.558Z,54.20
2023-02-12T18:28:26.220Z,54.03
2023-02-12T18:30:28.597Z,51.40
2023-02-12T18:32:30.367Z,51.38
2023-02-12T18:34:32.046Z,50.42
2023-02-12T18:36:33.754Z,47.67
2023-02-12T18:38:36.557Z,43.80
2023-02-12T18:40:40.335Z,46.60
2023-02-12T18:42:42.082Z,42.65
2023-02-12T18:44:43.760Z,48.75
2023-02-12T18:46:45.461Z,53.33
2023-02-12T18:48:47.429Z,54.63
2023-02-12T18:50:51.772Z,53.45
2023-02-12T18:52:53.575Z,51.33
2023-02-12T18:54:55.427Z,52.15
2023-02-12T18:56:57.058Z,49.60
2023-02-12T18:58:59.878Z,47.00
2023-02-12T19:01:01.963Z,47.53
2023-02-12T19:03:03.691Z,46.58
2023-02-12T19:05:05.597Z,49.75
2023-02-12T19:07:07.176Z,45.13
2023-02-12T19:09:09.233Z,45.60
2023-02-12T19:11:11.680Z,45.95
2023-02-12T19:13:13.248Z,49.13
2023-02-12T19:15:14.814Z,46.53
2023-02-12T19:17:16.560Z,44.20
2023-02-12T19:19:21.930Z,49.17
2023-02-12T19:21:26.399Z,47.05
2023-02-12T19:23:28.120Z,46.33
2023-02-12T19:25:29.685Z,45.38
2023-02-12T19:27:31.958Z,43.67
2023-02-12T19:29:33.607Z,45.80
2023-02-12T19:31:37.904Z,45.25
2023-02-12T19:33:41.038Z,42.22
2023-02-12T19:35:43.231Z,42.80
2023-02-12T19:37:44.796Z,38.58
2023-02-12T19:39:46.465Z,40.80
2023-02-12T19:41:48.775Z,40.00
2023-02-12T19:43:58.471Z,39.50
2023-02-12T19:46:20.664Z,39.83
2023-02-12T19:48:22.328Z,35.63
2023-02-12T19:50:23.962Z,39.92
2023-02-12T19:52:25.662Z,38.65
2023-02-12T19:54:27.427Z,37.45
2023-02-12T19:56:29.096Z,44.33
2023-02-12T19:58:31.286Z,45.00
2023-02-12T20:00:32.853Z,43.88
2023-02-12T20:02:34.579Z,41.08
2023-02-12T20:04:37.007Z,40.05
2023-02-12T20:06:39.538Z,38.42
2023-02-12T20:08:42.062Z,38.70
2023-02-12T20:10:43.748Z,37.45
2023-02-12T20:12:45.450Z,42.03
2023-02-12T20:14:47.009Z,41.80
2023-02-12T20:16:50.183Z,40.38
2023-02-12T20:18:53.569Z,40.45
2023-02-12T20:20:55.416Z,38.38
2023-02-12T20:22:57.239Z,41.00
2023-02-12T20:24:58.802Z,39.85
2023-02-12T20:27:01.773Z,40.35
2023-02-12T20:29:05.378Z,42.07
2023-02-12T20:31:12.630Z,42.78
2023-02-12T20:33:14.416Z,44.25
2023-02-12T20:35:16.225Z,46.53
2023-02-12T20:37:18.949Z,47.38
2023-02-12T20:39:21.020Z,45.47
2023-02-12T20:41:23.796Z,43.65
2023-02-12T20:43:25.418Z,43.63
2023-02-12T20:45:27.125Z,44.22
2023-02-12T20:47:29.048Z,43.05
2023-02-12T20:49:30.698Z,41.85
2023-02-12T20:51:32.915Z,40.83
2023-02-12T20:53:35.435Z,43.13
2023-02-12T20:55:37.096Z,44.38
2023-02-12T20:57:38.764Z,44.08
2023-02-12T20:59:40.479Z,44.38
2023-02-12T21:01:42.996Z,44.72
2023-02-12T21:03:45.124Z,42.97
2023-02-12T21:05:46.732Z,43.20
2023-02-12T21:07:49.827Z,43.53
2023-02-12T21:09:51.481Z,38.25
2023-02-12T21:11:53.195Z,39.92
2023-02-12T21:14:18.365Z,36.45
2023-02-12T21:16:18.523Z,36.70
2023-02-12T21:18:24.210Z,36.83
2023-02-12T21:20:25.899Z,39.08
2023-02-12T21:22:27.532Z,39.22
2023-02-12T21:24:29.211Z,37.97
2023-02-12T21:26:32.397Z,36.60
2023-02-12T21:28:34.746Z,37.60
2023-02-12T21:30:36.441Z,38.78
2023-02-12T21:32:37.989Z,39.75
2023-02-12T21:34:39.700Z,41.10
2023-02-12T21:36:42.357Z,41.35
2023-02-12T21:38:45.596Z,40.42
2023-02-12T21:40:47.240Z,40.78
2023-02-12T21:42:48.936Z,38.70
2023-02-12T21:44:50.633Z,39.05
2023-02-12T21:46:52.722Z,40.05
2023-02-12T21:48:55.378Z,39.08
2023-02-12T21:50:57.482Z,38.42
2023-02-12T21:52:59.258Z,36.00
2023-02-12T21:55:00.945Z,39.92
2023-02-12T21:57:02.613Z,33.45
2023-02-12T21:59:04.509Z,35.47
2023-02-12T22:01:11.436Z,36.03
2023-02-12T22:03:13.166Z,36.78
2023-02-12T22:05:14.887Z,34.90
2023-02-12T22:07:16.791Z,36.03
2023-02-12T22:09:20.630Z,36.35
2023-02-12T22:11:23.383Z,33.30
2023-02-12T22:13:24.994Z,35.95
2023-02-12T22:15:26.640Z,35.75
2023-02-12T22:17:28.304Z,33.17
2023-02-12T22:19:29.935Z,35.20
2023-02-12T22:21:34.895Z,35.92
2023-02-12T22:23:37.226Z,34.92
2023-02-12T22:25:38.910Z,37.00
2023-02-12T22:27:40.528Z,34.45
2023-02-12T22:29:42.157Z,36.20
2023-02-12T22:31:45.474Z,34.92
2023-02-12T22:33:47.848Z,36.97
2023-02-12T22:35:49.498Z,35.92
2023-02-12T22:37:51.101Z,38.67
2023-02-12T22:39:52.752Z,37.75
2023-02-12T22:41:54.662Z,37.20
2023-02-12T22:43:59.107Z,35.58
2023-02-12T22:46:01.107Z,36.53
2023-02-12T22:48:02.830Z,36.30
2023-02-12T22:50:05.123Z,36.97
2023-02-12T22:52:06.723Z,36.85
2023-02-12T22:54:13.402Z,35.65
2023-02-12T22:56:15.666Z,36.70
2023-02-12T22:58:17.558Z,35.05
2023-02-12T23:00:19.879Z,34.72
2023-02-12T23:02:21.507Z,34.47
2023-02-12T23:04:23.973Z,35.42
2023-02-12T23:06:29.266Z,33.70
2023-02-12T23:08:31.754Z,32.63
2023-02-12T23:10:33.516Z,34.25
2023-02-12T23:12:35.204Z,34.28
2023-02-12T23:14:36.781Z,34.00
2023-02-12T23:16:38.482Z,35.33
2023-02-12T23:18:40.169Z,35.80
2023-02-12T23:20:41.924Z,34.63
2023-02-12T23:22:43.586Z,34.53
2023-02-12T23:24:46.078Z,35.00
2023-02-12T23:26:47.775Z,34.53
2023-02-12T23:28:49.466Z,35.25
2023-02-12T23:30:52.232Z,36.15
2023-02-12T23:32:54.155Z,34.42
2023-02-12T23:34:55.860Z,34.75
2023-02-12T23:36:57.584Z,35.90
2023-02-12T23:38:59.442Z,37.30
2023-02-12T23:41:01.052Z,36.70
2023-02-12T23:43:02.749Z,35.90
2023-02-12T23:45:04.560Z,33.70
2023-02-12T23:47:06.195Z,34.25
2023-02-12T23:49:07.897Z,33.70
2023-02-12T23:51:10.240Z,34.28
2023-02-12T23:53:12.312Z,34.72
2023-02-12T23:55:13.958Z,33.38
2023-02-12T23:57:15.779Z,33.45
2023-02-12T23:59:17.554Z,33.38
